sensor_id;sensor_type;location;lat;lon;timestamp;temperature;humidity
75442;DHT22;64019;48.312;14.226;2023-04-01T00:01:46;9.00;99.90
75442;DHT22;64019;48.312;14.226;2023-04-01T00:04:12;9.00;99.90
75442;DHT22;64019;48.312;14.226;2023-04-01T00:06:37;9.00;99.90
75442;DHT22;64019;48.312;14.226;2023-04-01T00:09:03;9.00;99.90
75442;DHT22;64019;48.312;14.226;2023-04-01T00:11:29;9.00;99.90
75442;DHT22;64019;48.312;14.226;2023-04-01T00:13:54;9.00;99.90
75442;DHT22;64019;48.312;14.226;2023-04-01T00:16:21;9.00;99.90
75442;DHT22;64019;48.312;14.226;2023-04-01T00:18:47;9.00;99.90
75442;DHT22;64019;48.312;14.226;2023-04-01T00:21:14;9.00;99.90
75442;DHT22;64019;48.312;14.226;2023-04-01T00:23:40;9.00;99.90
75442;DHT22;64019;48.312;14.226;2023-04-01T00:26:06;9.00;99.90
75442;DHT22;64019;48.312;14.226;2023-04-01T00:28:34;9.00;99.90
75442;DHT22;64019;48.312;14.226;2023-04-01T00:31:08;9.00;99.90
75442;DHT22;64019;48.312;14.226;2023-04-01T00:33:34;9.00;99.90
75442;DHT22;64019;48.312;14.226;2023-04-01T00:36:11;8.90;99.90
75442;DHT22;64019;48.312;14.226;2023-04-01T00:38:37;8.90;99.90
75442;DHT22;64019;48.312;14.226;2023-04-01T00:41:04;8.80;99.90
75442;DHT22;64019;48.312;14.226;2023-04-01T00:43:30;8.80;99.90
75442;DHT22;64019;48.312;14.226;2023-04-01T00:45:56;8.80;99.90
75442;DHT22;64019;48.312;14.226;2023-04-01T00:48:34;8.80;99.90
75442;DHT22;64019;48.312;14.226;2023-04-01T00:53:34;8.80;99.90
75442;DHT22;64019;48.312;14.226;2023-04-01T00:56:05;8.80;99.90
75442;DHT22;64019;48.312;14.226;2023-04-01T00:58:36;8.60;99.90
75442;DHT22;64019;48.312;14.226;2023-04-01T01:01:05;8.50;99.90
75442;DHT22;64019;48.312;14.226;2023-04-01T01:03:31;8.60;99.90
75442;DHT22;64019;48.312;14.226;2023-04-01T01:06:23;8.70;99.90
75442;DHT22;64019;48.312;14.226;2023-04-01T01:09:10;8.60;99.90
75442;DHT22;64019;48.312;14.226;2023-04-01T01:12:01;8.60;99.90
75442;DHT22;64019;48.312;14.226;2023-04-01T01:17:48;8.50;99.90
75442;DHT22;64019;48.312;14.226;2023-04-01T01:20:03;8.50;99.90
75442;DHT22;64019;48.312;14.226;2023-04-01T01:22:49;8.60;99.90
75442;DHT22;64019;48.312;14.226;2023-04-01T01:25:40;8.50;99.90
75442;DHT22;64019;48.312;14.226;2023-04-01T01:30:49;8.30;99.90
75442;DHT22;64019;48.312;14.226;2023-04-01T01:35:50;8.40;99.90
75442;DHT22;64019;48.312;14.226;2023-04-01T01:38:20;8.40;99.90
75442;DHT22;64019;48.312;14.226;2023-04-01T01:40:50;8.40;99.90
75442;DHT22;64019;48.312;14.226;2023-04-01T01:43:22;8.40;99.90
75442;DHT22;64019;48.312;14.226;2023-04-01T01:45:54;8.50;99.90
75442;DHT22;64019;48.312;14.226;2023-04-01T01:48:20;8.40;99.90
75442;DHT22;64019;48.312;14.226;2023-04-01T01:50:48;8.50;99.90
75442;DHT22;64019;48.312;14.226;2023-04-01T01:53:14;8.50;99.90
75442;DHT22;64019;48.312;14.226;2023-04-01T01:55:43;8.40;99.90
75442;DHT22;64019;48.312;14.226;2023-04-01T02:00:59;8.40;99.90
75442;DHT22;64019;48.312;14.226;2023-04-01T02:03:27;8.30;99.90
75442;DHT22;64019;48.312;14.226;2023-04-01T02:05:56;8.20;99.90
75442;DHT22;64019;48.312;14.226;2023-04-01T02:08:35;8.20;99.90
75442;DHT22;64019;48.312;14.226;2023-04-01T02:11:12;8.20;99.90
75442;DHT22;64019;48.312;14.226;2023-04-01T02:13:50;8.30;99.90
75442;DHT22;64019;48.312;14.226;2023-04-01T02:16:25;8.30;99.90
75442;DHT22;64019;48.312;14.226;2023-04-01T02:18:54;8.30;99.90
75442;DHT22;64019;48.312;14.226;2023-04-01T02:21:22;8.30;99.90
75442;DHT22;64019;48.312;14.226;2023-04-01T02:23:50;8.20;99.90
75442;DHT22;64019;48.312;14.226;2023-04-01T02:26:17;8.20;99.90
75442;DHT22;64019;48.312;14.226;2023-04-01T02:28:45;8.20;99.90
75442;DHT22;64019;48.312;14.226;2023-04-01T02:31:12;8.20;99.90
75442;DHT22;64019;48.312;14.226;2023-04-01T02:33:40;8.20;99.90
75442;DHT22;64019;48.312;14.226;2023-04-01T02:36:07;8.20;99.90
75442;DHT22;64019;48.312;14.226;2023-04-01T02:38:36;8.20;99.90
75442;DHT22;64019;48.312;14.226;2023-04-01T02:41:02;8.20;99.90
75442;DHT22;64019;48.312;14.226;2023-04-01T02:43:28;8.10;99.90
75442;DHT22;64019;48.312;14.226;2023-04-01T02:45:54;8.10;99.90
75442;DHT22;64019;48.312;14.226;2023-04-01T02:48:20;8.00;99.90
75442;DHT22;64019;48.312;14.226;2023-04-01T02:50:46;8.00;99.90
75442;DHT22;64019;48.312;14.226;2023-04-01T02:53:11;8.00;99.90
75442;DHT22;64019;48.312;14.226;2023-04-01T02:55:37;8.00;99.90
75442;DHT22;64019;48.312;14.226;2023-04-01T02:58:03;8.10;99.90
75442;DHT22;64019;48.312;14.226;2023-04-01T03:00:29;8.00;99.90
75442;DHT22;64019;48.312;14.226;2023-04-01T03:02:55;8.00;99.90
75442;DHT22;64019;48.312;14.226;2023-04-01T03:05:22;8.00;99.90
75442;DHT22;64019;48.312;14.226;2023-04-01T03:07:47;7.90;99.90
75442;DHT22;64019;48.312;14.226;2023-04-01T03:10:13;8.00;99.90
75442;DHT22;64019;48.312;14.226;2023-04-01T03:12:39;8.00;99.90
75442;DHT22;64019;48.312;14.226;2023-04-01T03:15:05;8.00;99.90
75442;DHT22;64019;48.312;14.226;2023-04-01T03:17:31;8.10;99.90
75442;DHT22;64019;48.312;14.226;2023-04-01T03:19:57;8.10;99.90
75442;DHT22;64019;48.312;14.226;2023-04-01T03:22:22;8.00;99.90
75442;DHT22;64019;48.312;14.226;2023-04-01T03:24:48;8.10;99.90
75442;DHT22;64019;48.312;14.226;2023-04-01T03:27:14;8.10;99.90
75442;DHT22;64019;48.312;14.226;2023-04-01T03:29:40;8.10;99.90
75442;DHT22;64019;48.312;14.226;2023-04-01T03:32:06;8.00;99.90
75442;DHT22;64019;48.312;14.226;2023-04-01T03:34:31;8.10;99.90
75442;DHT22;64019;48.312;14.226;2023-04-01T03:36:57;8.00;99.90
75442;DHT22;64019;48.312;14.226;2023-04-01T03:39:23;8.10;99.90
75442;DHT22;64019;48.312;14.226;2023-04-01T03:41:49;8.10;99.90
75442;DHT22;64019;48.312;14.226;2023-04-01T03:44:15;8.10;99.90
75442;DHT22;64019;48.312;14.226;2023-04-01T03:46:40;8.10;99.90
75442;DHT22;64019;48.312;14.226;2023-04-01T03:49:07;8.20;99.90
75442;DHT22;64019;48.312;14.226;2023-04-01T03:51:41;8.10;99.90
75442;DHT22;64019;48.312;14.226;2023-04-01T03:54:08;8.20;99.90
75442;DHT22;64019;48.312;14.226;2023-04-01T03:56:33;8.20;99.90
75442;DHT22;64019;48.312;14.226;2023-04-01T03:59:03;8.30;99.90
75442;DHT22;64019;48.312;14.226;2023-04-01T04:01:29;8.30;99.90
75442;DHT22;64019;48.312;14.226;2023-04-01T04:03:55;8.20;99.90
75442;DHT22;64019;48.312;14.226;2023-04-01T04:06:22;8.20;99.90
75442;DHT22;64019;48.312;14.226;2023-04-01T04:08:48;8.20;99.90
75442;DHT22;64019;48.312;14.226;2023-04-01T04:11:14;8.20;99.90
75442;DHT22;64019;48.312;14.226;2023-04-01T04:13:40;8.10;99.90
75442;DHT22;64019;48.312;14.226;2023-04-01T04:16:05;8.20;99.90
75442;DHT22;64019;48.312;14.226;2023-04-01T04:18:32;8.20;99.90
75442;DHT22;64019;48.312;14.226;2023-04-01T04:20:57;8.20;99.90
75442;DHT22;64019;48.312;14.226;2023-04-01T04:23:23;8.20;99.90
75442;DHT22;64019;48.312;14.226;2023-04-01T04:25:57;8.20;99.90
75442;DHT22;64019;48.312;14.226;2023-04-01T04:28:23;8.20;99.90
75442;DHT22;64019;48.312;14.226;2023-04-01T04:30:48;8.30;99.90
75442;DHT22;64019;48.312;14.226;2023-04-01T04:33:14;8.30;99.90
75442;DHT22;64019;48.312;14.226;2023-04-01T04:35:40;8.30;99.90
75442;DHT22;64019;48.312;14.226;2023-04-01T04:38:06;8.30;99.90
75442;DHT22;64019;48.312;14.226;2023-04-01T04:40:31;8.30;99.90
75442;DHT22;64019;48.312;14.226;2023-04-01T04:42:57;8.20;99.90
75442;DHT22;64019;48.312;14.226;2023-04-01T04:45:23;8.20;99.90
75442;DHT22;64019;48.312;14.226;2023-04-01T04:47:48;8.20;99.90
75442;DHT22;64019;48.312;14.226;2023-04-01T04:50:14;8.20;99.90
75442;DHT22;64019;48.312;14.226;2023-04-01T04:52:40;8.20;99.90
75442;DHT22;64019;48.312;14.226;2023-04-01T04:55:05;8.20;99.90
75442;DHT22;64019;48.312;14.226;2023-04-01T04:57:31;8.30;99.90
75442;DHT22;64019;48.312;14.226;2023-04-01T04:59:57;8.30;99.90
75442;DHT22;64019;48.312;14.226;2023-04-01T05:02:22;8.20;99.90
75442;DHT22;64019;48.312;14.226;2023-04-01T05:04:48;8.20;99.90
75442;DHT22;64019;48.312;14.226;2023-04-01T05:07:14;8.30;99.90
75442;DHT22;64019;48.312;14.226;2023-04-01T05:09:40;8.30;99.90
75442;DHT22;64019;48.312;14.226;2023-04-01T05:12:06;8.20;99.90
75442;DHT22;64019;48.312;14.226;2023-04-01T05:14:31;8.20;99.90
75442;DHT22;64019;48.312;14.226;2023-04-01T05:16:57;8.20;99.90
75442;DHT22;64019;48.312;14.226;2023-04-01T05:19:23;8.20;99.90
75442;DHT22;64019;48.312;14.226;2023-04-01T05:21:48;8.20;99.90
75442;DHT22;64019;48.312;14.226;2023-04-01T05:24:14;8.30;99.90
75442;DHT22;64019;48.312;14.226;2023-04-01T05:26:39;8.30;99.90
75442;DHT22;64019;48.312;14.226;2023-04-01T05:29:05;8.40;99.90
75442;DHT22;64019;48.312;14.226;2023-04-01T05:31:31;8.40;99.90
75442;DHT22;64019;48.312;14.226;2023-04-01T05:33:56;8.40;99.90
75442;DHT22;64019;48.312;14.226;2023-04-01T05:36:22;8.50;99.90
75442;DHT22;64019;48.312;14.226;2023-04-01T05:38:48;8.40;99.90
75442;DHT22;64019;48.312;14.226;2023-04-01T05:41:15;8.50;99.90
75442;DHT22;64019;48.312;14.226;2023-04-01T05:43:41;8.50;99.90
75442;DHT22;64019;48.312;14.226;2023-04-01T05:46:07;8.60;99.90
75442;DHT22;64019;48.312;14.226;2023-04-01T05:48:34;8.70;99.90
75442;DHT22;64019;48.312;14.226;2023-04-01T05:51:03;8.70;99.90
75442;DHT22;64019;48.312;14.226;2023-04-01T05:53:29;8.70;99.90
75442;DHT22;64019;48.312;14.226;2023-04-01T05:55:55;8.60;99.90
75442;DHT22;64019;48.312;14.226;2023-04-01T05:58:20;8.70;99.90
75442;DHT22;64019;48.312;14.226;2023-04-01T06:00:46;8.60;99.90
75442;DHT22;64019;48.312;14.226;2023-04-01T06:03:12;8.60;99.90
75442;DHT22;64019;48.312;14.226;2023-04-01T06:05:42;8.70;99.90
75442;DHT22;64019;48.312;14.226;2023-04-01T06:08:17;8.70;99.90
75442;DHT22;64019;48.312;14.226;2023-04-01T06:11:27;8.70;99.90
75442;DHT22;64019;48.312;14.226;2023-04-01T06:22:04;8.70;99.90
75442;DHT22;64019;48.312;14.226;2023-04-01T06:25:22;8.80;99.90
75442;DHT22;64019;48.312;14.226;2023-04-01T06:37:03;9.10;99.90
75442;DHT22;64019;48.312;14.226;2023-04-01T06:39:31;9.20;99.90
75442;DHT22;64019;48.312;14.226;2023-04-01T06:42:20;9.30;99.90
75442;DHT22;64019;48.312;14.226;2023-04-01T06:45:07;9.30;99.90
75442;DHT22;64019;48.312;14.226;2023-04-01T06:50:26;9.30;99.90
75442;DHT22;64019;48.312;14.226;2023-04-01T06:55:43;9.60;99.90
75442;DHT22;64019;48.312;14.226;2023-04-01T06:58:34;9.70;99.90
75442;DHT22;64019;48.312;14.226;2023-04-01T07:01:07;9.90;99.90
75442;DHT22;64019;48.312;14.226;2023-04-01T07:06:10;9.90;99.90
75442;DHT22;64019;48.312;14.226;2023-04-01T07:08:40;9.90;99.90
75442;DHT22;64019;48.312;14.226;2023-04-01T07:11:11;9.90;99.90
75442;DHT22;64019;48.312;14.226;2023-04-01T07:13:47;9.90;99.90
75442;DHT22;64019;48.312;14.226;2023-04-01T07:16:16;9.90;99.90
75442;DHT22;64019;48.312;14.226;2023-04-01T07:18:50;9.80;99.90
75442;DHT22;64019;48.312;14.226;2023-04-01T07:21:29;9.90;99.90
75442;DHT22;64019;48.312;14.226;2023-04-01T07:23:59;10.00;99.90
75442;DHT22;64019;48.312;14.226;2023-04-01T07:26:26;10.00;99.90
75442;DHT22;64019;48.312;14.226;2023-04-01T07:28:53;10.00;99.90
75442;DHT22;64019;48.312;14.226;2023-04-01T07:37:03;10.00;99.90
75442;DHT22;64019;48.312;14.226;2023-04-01T07:42:40;10.20;99.90
75442;DHT22;64019;48.312;14.226;2023-04-01T07:48:27;10.20;99.90
75442;DHT22;64019;48.312;14.226;2023-04-01T07:51:07;10.20;99.90
75442;DHT22;64019;48.312;14.226;2023-04-01T07:53:46;10.20;99.90
75442;DHT22;64019;48.312;14.226;2023-04-01T07:59:08;10.30;99.90
75442;DHT22;64019;48.312;14.226;2023-04-01T08:01:39;10.20;99.90
75442;DHT22;64019;48.312;14.226;2023-04-01T08:09:43;10.30;99.90
75442;DHT22;64019;48.312;14.226;2023-04-01T08:15:25;10.40;99.90
75442;DHT22;64019;48.312;14.226;2023-04-01T08:21:01;10.50;99.90
75442;DHT22;64019;48.312;14.226;2023-04-01T08:23:32;10.60;99.90
75442;DHT22;64019;48.312;14.226;2023-04-01T08:26:35;10.60;99.90
75442;DHT22;64019;48.312;14.226;2023-04-01T08:29:08;10.70;99.90
75442;DHT22;64019;48.312;14.226;2023-04-01T08:31:57;10.80;99.90
75442;DHT22;64019;48.312;14.226;2023-04-01T08:34:30;10.90;99.90
75442;DHT22;64019;48.312;14.226;2023-04-01T08:37:05;11.10;99.90
75442;DHT22;64019;48.312;14.226;2023-04-01T08:39:43;11.10;99.90
75442;DHT22;64019;48.312;14.226;2023-04-01T08:45:25;11.30;99.90
75442;DHT22;64019;48.312;14.226;2023-04-01T08:51:08;11.60;99.90
75442;DHT22;64019;48.312;14.226;2023-04-01T09:13:50;11.70;99.90
75442;DHT22;64019;48.312;14.226;2023-04-01T09:19:46;12.00;99.90
75442;DHT22;64019;48.312;14.226;2023-04-01T09:22:53;12.10;99.90
75442;DHT22;64019;48.312;14.226;2023-04-01T09:25:45;12.20;99.90
75442;DHT22;64019;48.312;14.226;2023-04-01T09:28:20;12.10;99.90
75442;DHT22;64019;48.312;14.226;2023-04-01T09:34:25;11.90;99.90
75442;DHT22;64019;48.312;14.226;2023-04-01T09:43:06;12.00;99.90
75442;DHT22;64019;48.312;14.226;2023-04-01T09:48:39;12.00;99.90
75442;DHT22;64019;48.312;14.226;2023-04-01T10:11:07;11.70;99.90
75442;DHT22;64019;48.312;14.226;2023-04-01T10:14:24;11.80;99.90
75442;DHT22;64019;48.312;14.226;2023-04-01T10:20:12;11.80;99.90
75442;DHT22;64019;48.312;14.226;2023-04-01T10:22:51;11.80;99.90
75442;DHT22;64019;48.312;14.226;2023-04-01T10:25:47;11.80;99.90
75442;DHT22;64019;48.312;14.226;2023-04-01T10:28:51;11.80;99.90
75442;DHT22;64019;48.312;14.226;2023-04-01T10:36:56;12.40;99.90
75442;DHT22;64019;48.312;14.226;2023-04-01T10:50:50;12.60;99.90
75442;DHT22;64019;48.312;14.226;2023-04-01T10:59:14;12.70;99.90
75442;DHT22;64019;48.312;14.226;2023-04-01T11:16:57;13.10;99.90
75442;DHT22;64019;48.312;14.226;2023-04-01T11:32:50;13.30;99.90
75442;DHT22;64019;48.312;14.226;2023-04-01T11:35:36;13.30;99.90
75442;DHT22;64019;48.312;14.226;2023-04-01T11:41:13;13.40;99.90
75442;DHT22;64019;48.312;14.226;2023-04-01T11:52:00;13.70;99.90
75442;DHT22;64019;48.312;14.226;2023-04-01T11:54:44;13.60;99.90
75442;DHT22;64019;48.312;14.226;2023-04-01T12:03:29;13.40;99.90
75442;DHT22;64019;48.312;14.226;2023-04-01T12:08:51;13.50;99.90
75442;DHT22;64019;48.312;14.226;2023-04-01T12:31:13;13.60;99.90
75442;DHT22;64019;48.312;14.226;2023-04-01T12:37:04;13.70;99.90
75442;DHT22;64019;48.312;14.226;2023-04-01T12:48:23;13.70;99.90
75442;DHT22;64019;48.312;14.226;2023-04-01T12:56:18;13.30;99.90
75442;DHT22;64019;48.312;14.226;2023-04-01T13:07:33;11.50;99.90
75442;DHT22;64019;48.312;14.226;2023-04-01T13:12:59;11.80;99.90
75442;DHT22;64019;48.312;14.226;2023-04-01T13:23:40;12.10;99.90
75442;DHT22;64019;48.312;14.226;2023-04-01T13:29:39;12.20;99.90
75442;DHT22;64019;48.312;14.226;2023-04-01T13:34:54;12.30;99.90
75442;DHT22;64019;48.312;14.226;2023-04-01T13:37:45;12.50;99.90
75442;DHT22;64019;48.312;14.226;2023-04-01T13:43:04;13.00;99.90
75442;DHT22;64019;48.312;14.226;2023-04-01T13:54:23;13.10;99.90
75442;DHT22;64019;48.312;14.226;2023-04-01T14:16:03;12.50;99.90
75442;DHT22;64019;48.312;14.226;2023-04-01T14:18:52;12.10;99.90
75442;DHT22;64019;48.312;14.226;2023-04-01T14:21:38;10.60;99.90
75442;DHT22;64019;48.312;14.226;2023-04-01T14:32:51;9.60;99.90
75442;DHT22;64019;48.312;14.226;2023-04-01T14:38:27;10.10;99.90
75442;DHT22;64019;48.312;14.226;2023-04-01T14:44:01;10.20;99.90
75442;DHT22;64019;48.312;14.226;2023-04-01T14:49:51;10.10;99.90
75442;DHT22;64019;48.312;14.226;2023-04-01T14:52:36;10.30;99.90
75442;DHT22;64019;48.312;14.226;2023-04-01T14:55:00;10.30;99.90
75442;DHT22;64019;48.312;14.226;2023-04-01T14:57:31;10.20;99.90
75442;DHT22;64019;48.312;14.226;2023-04-01T15:00:13;10.10;99.90
75442;DHT22;64019;48.312;14.226;2023-04-01T15:03:11;10.20;99.90
75442;DHT22;64019;48.312;14.226;2023-04-01T15:05:55;10.30;99.90
75442;DHT22;64019;48.312;14.226;2023-04-01T15:08:33;10.40;99.90
75442;DHT22;64019;48.312;14.226;2023-04-01T15:13:46;10.40;99.90
75442;DHT22;64019;48.312;14.226;2023-04-01T15:16:34;10.40;99.90
75442;DHT22;64019;48.312;14.226;2023-04-01T15:25:00;10.50;99.90
75442;DHT22;64019;48.312;14.226;2023-04-01T15:33:14;10.20;99.90
75442;DHT22;64019;48.312;14.226;2023-04-01T15:36:11;10.20;99.90
75442;DHT22;64019;48.312;14.226;2023-04-01T15:38:50;10.20;99.90
75442;DHT22;64019;48.312;14.226;2023-04-01T15:41:29;10.20;99.90
75442;DHT22;64019;48.312;14.226;2023-04-01T15:44:00;10.30;99.90
75442;DHT22;64019;48.312;14.226;2023-04-01T15:46:44;10.30;99.90
75442;DHT22;64019;48.312;14.226;2023-04-01T16:00:06;10.30;99.90
75442;DHT22;64019;48.312;14.226;2023-04-01T16:02:44;10.20;99.90
75442;DHT22;64019;48.312;14.226;2023-04-01T16:05:29;10.20;99.90
75442;DHT22;64019;48.312;14.226;2023-04-01T16:10:58;10.30;99.90
75442;DHT22;64019;48.312;14.226;2023-04-01T16:19:35;10.20;99.90
75442;DHT22;64019;48.312;14.226;2023-04-01T16:22:48;10.10;99.90
75442;DHT22;64019;48.312;14.226;2023-04-01T16:33:21;10.00;99.90
75442;DHT22;64019;48.312;14.226;2023-04-01T16:38:50;10.00;99.90
75442;DHT22;64019;48.312;14.226;2023-04-01T16:41:24;9.90;99.90
75442;DHT22;64019;48.312;14.226;2023-04-01T16:43:57;9.90;99.90
75442;DHT22;64019;48.312;14.226;2023-04-01T16:46:42;9.80;99.90
75442;DHT22;64019;48.312;14.226;2023-04-01T16:57:23;9.80;99.90
75442;DHT22;64019;48.312;14.226;2023-04-01T17:02:25;9.80;99.90
75442;DHT22;64019;48.312;14.226;2023-04-01T17:05:05;9.80;99.90
75442;DHT22;64019;48.312;14.226;2023-04-01T17:10:37;9.70;99.90
75442;DHT22;64019;48.312;14.226;2023-04-01T17:21:39;9.50;99.90
75442;DHT22;64019;48.312;14.226;2023-04-01T17:32:49;9.30;99.90
75442;DHT22;64019;48.312;14.226;2023-04-01T17:43:47;9.30;99.90
75442;DHT22;64019;48.312;14.226;2023-04-01T17:49:47;9.30;99.90
75442;DHT22;64019;48.312;14.226;2023-04-01T17:52:15;9.30;99.90
75442;DHT22;64019;48.312;14.226;2023-04-01T17:54:54;9.30;99.90
75442;DHT22;64019;48.312;14.226;2023-04-01T18:05:24;9.40;99.90
75442;DHT22;64019;48.312;14.226;2023-04-01T18:10:41;9.30;99.90
75442;DHT22;64019;48.312;14.226;2023-04-01T18:18:53;9.30;99.90
75442;DHT22;64019;48.312;14.226;2023-04-01T18:21:46;9.30;99.90
75442;DHT22;64019;48.312;14.226;2023-04-01T18:24:18;9.20;99.90
75442;DHT22;64019;48.312;14.226;2023-04-01T18:27:24;9.20;99.90
75442;DHT22;64019;48.312;14.226;2023-04-01T18:32:49;9.30;99.90
75442;DHT22;64019;48.312;14.226;2023-04-01T18:35:57;9.30;99.90
75442;DHT22;64019;48.312;14.226;2023-04-01T18:38:38;9.20;99.90
75442;DHT22;64019;48.312;14.226;2023-04-01T18:41:30;9.30;99.90
75442;DHT22;64019;48.312;14.226;2023-04-01T18:44:16;9.20;99.90
75442;DHT22;64019;48.312;14.226;2023-04-01T18:47:02;9.20;99.90
75442;DHT22;64019;48.312;14.226;2023-04-01T18:52:26;9.20;99.90
75442;DHT22;64019;48.312;14.226;2023-04-01T19:00:39;9.20;99.90
75442;DHT22;64019;48.312;14.226;2023-04-01T19:03:25;9.20;99.90
75442;DHT22;64019;48.312;14.226;2023-04-01T19:05:55;9.30;99.90
75442;DHT22;64019;48.312;14.226;2023-04-01T19:08:28;9.20;99.90
75442;DHT22;64019;48.312;14.226;2023-04-01T19:21:47;9.30;99.90
75442;DHT22;64019;48.312;14.226;2023-04-01T19:35:26;9.30;99.90
75442;DHT22;64019;48.312;14.226;2023-04-01T19:45:43;9.50;99.90
75442;DHT22;64019;48.312;14.226;2023-04-01T19:56:20;9.50;99.90
75442;DHT22;64019;48.312;14.226;2023-04-01T19:58:55;9.50;99.90
75442;DHT22;64019;48.312;14.226;2023-04-01T20:10:13;9.40;99.90
75442;DHT22;64019;48.312;14.226;2023-04-01T20:17:48;9.40;99.90
75442;DHT22;64019;48.312;14.226;2023-04-01T20:20:21;9.40;99.90
75442;DHT22;64019;48.312;14.226;2023-04-01T20:25:59;9.30;99.90
75442;DHT22;64019;48.312;14.226;2023-04-01T20:31:41;9.30;99.90
75442;DHT22;64019;48.312;14.226;2023-04-01T20:37:00;9.30;99.90
75442;DHT22;64019;48.312;14.226;2023-04-01T20:50:54;9.40;99.90
75442;DHT22;64019;48.312;14.226;2023-04-01T20:53:43;9.40;99.90
75442;DHT22;64019;48.312;14.226;2023-04-01T20:56:17;9.40;99.90
75442;DHT22;64019;48.312;14.226;2023-04-01T21:18:09;9.30;99.90
75442;DHT22;64019;48.312;14.226;2023-04-01T21:32:27;9.20;99.90
75442;DHT22;64019;48.312;14.226;2023-04-01T21:35:06;9.20;99.90
75442;DHT22;64019;48.312;14.226;2023-04-01T21:38:15;9.10;99.90
75442;DHT22;64019;48.312;14.226;2023-04-01T21:51:41;9.00;99.90
75442;DHT22;64019;48.312;14.226;2023-04-01T22:05:34;9.00;99.90
75442;DHT22;64019;48.312;14.226;2023-04-01T22:10:47;9.00;99.90
75442;DHT22;64019;48.312;14.226;2023-04-01T22:18:33;9.10;99.90
75442;DHT22;64019;48.312;14.226;2023-04-01T22:29:35;9.10;99.90
75442;DHT22;64019;48.312;14.226;2023-04-01T22:32:13;9.10;99.90
75442;DHT22;64019;48.312;14.226;2023-04-01T22:35:10;9.10;99.90
75442;DHT22;64019;48.312;14.226;2023-04-01T22:43:41;9.10;99.90
75442;DHT22;64019;48.312;14.226;2023-04-01T22:46:48;9.10;99.90
75442;DHT22;64019;48.312;14.226;2023-04-01T22:49:24;9.10;99.90
75442;DHT22;64019;48.312;14.226;2023-04-01T22:54:43;9.10;99.90
75442;DHT22;64019;48.312;14.226;2023-04-01T23:00:21;9.00;99.90
75442;DHT22;64019;48.312;14.226;2023-04-01T23:03:11;9.00;99.90
75442;DHT22;64019;48.312;14.226;2023-04-01T23:05:59;9.00;99.90
75442;DHT22;64019;48.312;14.226;2023-04-01T23:16:51;8.90;99.90
75442;DHT22;64019;48.312;14.226;2023-04-01T23:19:28;8.90;99.90
75442;DHT22;64019;48.312;14.226;2023-04-01T23:22:30;8.90;99.90
75442;DHT22;64019;48.312;14.226;2023-04-01T23:24:59;8.90;99.90
75442;DHT22;64019;48.312;14.226;2023-04-01T23:27:37;8.90;99.90
75442;DHT22;64019;48.312;14.226;2023-04-01T23:33:26;8.80;99.90
75442;DHT22;64019;48.312;14.226;2023-04-01T23:35:56;8.80;99.90
75442;DHT22;64019;48.312;14.226;2023-04-01T23:38:35;8.80;99.90
75442;DHT22;64019;48.312;14.226;2023-04-01T23:41:02;8.80;99.90
75442;DHT22;64019;48.312;14.226;2023-04-01T23:43:31;8.70;99.90
75442;DHT22;64019;48.312;14.226;2023-04-01T23:45:58;8.60;99.90
75442;DHT22;64019;48.312;14.226;2023-04-01T23:50:58;8.60;99.90
75442;DHT22;64019;48.312;14.226;2023-04-01T23:53:28;8.60;99.90
75442;DHT22;64019;48.312;14.226;2023-04-01T23:55:55;8.60;99.90
